sensor_id;sensor_type;location;lat;lon;timestamp;temperature;humidity
17381;DHT22;8808;52.478;13.378;2023-04-24T00:02:07;11.80;99.90
17381;DHT22;8808;52.478;13.378;2023-04-24T00:04:36;11.90;99.90
17381;DHT22;8808;52.478;13.378;2023-04-24T00:07:07;11.80;99.90
17381;DHT22;8808;52.478;13.378;2023-04-24T00:09:34;11.80;99.90
17381;DHT22;8808;52.478;13.378;2023-04-24T00:12:01;11.80;99.90
17381;DHT22;8808;52.478;13.378;2023-04-24T00:14:30;11.80;99.90
17381;DHT22;8808;52.478;13.378;2023-04-24T00:16:57;11.70;99.90
17381;DHT22;8808;52.478;13.378;2023-04-24T00:19:24;11.80;99.90
17381;DHT22;8808;52.478;13.378;2023-04-24T00:21:51;11.90;99.90
17381;DHT22;8808;52.478;13.378;2023-04-24T00:24:19;11.80;99.90
17381;DHT22;8808;52.478;13.378;2023-04-24T00:26:47;11.80;99.90
17381;DHT22;8808;52.478;13.378;2023-04-24T00:29:14;11.80;99.90
17381;DHT22;8808;52.478;13.378;2023-04-24T00:31:41;11.70;99.90
17381;DHT22;8808;52.478;13.378;2023-04-24T00:34:07;11.70;99.90
17381;DHT22;8808;52.478;13.378;2023-04-24T00:36:36;11.80;99.90
17381;DHT22;8808;52.478;13.378;2023-04-24T00:39:03;11.80;99.90
17381;DHT22;8808;52.478;13.378;2023-04-24T00:41:31;11.70;99.90
17381;DHT22;8808;52.478;13.378;2023-04-24T00:43:58;11.70;99.90
17381;DHT22;8808;52.478;13.378;2023-04-24T00:46:25;11.70;99.90
17381;DHT22;8808;52.478;13.378;2023-04-24T00:48:52;11.70;99.90
17381;DHT22;8808;52.478;13.378;2023-04-24T00:51:19;11.60;99.90
17381;DHT22;8808;52.478;13.378;2023-04-24T00:53:46;11.60;99.90
17381;DHT22;8808;52.478;13.378;2023-04-24T00:56:14;11.60;99.90
17381;DHT22;8808;52.478;13.378;2023-04-24T00:58:42;11.60;99.90
17381;DHT22;8808;52.478;13.378;2023-04-24T01:03:45;11.70;99.90
17381;DHT22;8808;52.478;13.378;2023-04-24T01:06:12;11.80;99.90
17381;DHT22;8808;52.478;13.378;2023-04-24T01:08:40;11.70;99.90
17381;DHT22;8808;52.478;13.378;2023-04-24T01:11:08;11.70;99.90
17381;DHT22;8808;52.478;13.378;2023-04-24T01:13:35;11.70;99.90
17381;DHT22;8808;52.478;13.378;2023-04-24T01:16:03;11.80;99.90
17381;DHT22;8808;52.478;13.378;2023-04-24T01:18:30;11.80;99.90
17381;DHT22;8808;52.478;13.378;2023-04-24T01:20:58;11.90;99.90
17381;DHT22;8808;52.478;13.378;2023-04-24T01:23:27;11.80;99.90
17381;DHT22;8808;52.478;13.378;2023-04-24T01:25:55;11.80;99.90
17381;DHT22;8808;52.478;13.378;2023-04-24T01:28:22;11.80;99.90
17381;DHT22;8808;52.478;13.378;2023-04-24T01:30:49;11.70;99.90
17381;DHT22;8808;52.478;13.378;2023-04-24T01:33:16;11.70;99.90
17381;DHT22;8808;52.478;13.378;2023-04-24T01:35:43;11.70;99.90
17381;DHT22;8808;52.478;13.378;2023-04-24T01:38:11;11.70;99.90
17381;DHT22;8808;52.478;13.378;2023-04-24T01:40:39;11.70;99.90
17381;DHT22;8808;52.478;13.378;2023-04-24T01:43:06;11.70;99.90
17381;DHT22;8808;52.478;13.378;2023-04-24T01:45:34;11.90;99.90
17381;DHT22;8808;52.478;13.378;2023-04-24T01:48:01;12.00;99.90
17381;DHT22;8808;52.478;13.378;2023-04-24T01:50:28;12.00;99.90
17381;DHT22;8808;52.478;13.378;2023-04-24T01:52:54;12.00;99.90
17381;DHT22;8808;52.478;13.378;2023-04-24T01:55:22;12.00;99.90
17381;DHT22;8808;52.478;13.378;2023-04-24T01:57:52;12.00;99.90
17381;DHT22;8808;52.478;13.378;2023-04-24T02:00:21;12.00;99.90
17381;DHT22;8808;52.478;13.378;2023-04-24T02:02:48;11.90;99.90
17381;DHT22;8808;52.478;13.378;2023-04-24T02:05:15;12.10;99.90
17381;DHT22;8808;52.478;13.378;2023-04-24T02:07:42;12.00;99.90
17381;DHT22;8808;52.478;13.378;2023-04-24T02:10:10;12.00;99.90
17381;DHT22;8808;52.478;13.378;2023-04-24T02:12:37;12.00;99.90
17381;DHT22;8808;52.478;13.378;2023-04-24T02:15:06;12.00;99.90
17381;DHT22;8808;52.478;13.378;2023-04-24T02:17:33;12.00;99.90
17381;DHT22;8808;52.478;13.378;2023-04-24T02:20:00;12.00;99.90
17381;DHT22;8808;52.478;13.378;2023-04-24T02:22:27;11.90;99.90
17381;DHT22;8808;52.478;13.378;2023-04-24T02:24:53;11.90;99.90
17381;DHT22;8808;52.478;13.378;2023-04-24T02:27:20;12.00;99.90
17381;DHT22;8808;52.478;13.378;2023-04-24T02:29:47;11.90;99.90
17381;DHT22;8808;52.478;13.378;2023-04-24T02:32:16;12.00;99.90
17381;DHT22;8808;52.478;13.378;2023-04-24T02:34:42;12.00;99.90
17381;DHT22;8808;52.478;13.378;2023-04-24T02:37:10;12.00;99.90
17381;DHT22;8808;52.478;13.378;2023-04-24T02:39:37;11.90;99.90
17381;DHT22;8808;52.478;13.378;2023-04-24T02:42:04;12.00;99.90
17381;DHT22;8808;52.478;13.378;2023-04-24T02:44:31;12.00;99.90
17381;DHT22;8808;52.478;13.378;2023-04-24T02:46:58;12.00;99.90
17381;DHT22;8808;52.478;13.378;2023-04-24T02:49:26;12.10;99.90
17381;DHT22;8808;52.478;13.378;2023-04-24T02:51:53;12.10;99.90
17381;DHT22;8808;52.478;13.378;2023-04-24T02:54:20;12.00;99.90
17381;DHT22;8808;52.478;13.378;2023-04-24T02:56:47;12.10;99.90
17381;DHT22;8808;52.478;13.378;2023-04-24T02:59:14;12.10;99.90
17381;DHT22;8808;52.478;13.378;2023-04-24T03:01:41;12.20;99.90
17381;DHT22;8808;52.478;13.378;2023-04-24T03:04:08;12.20;99.90
17381;DHT22;8808;52.478;13.378;2023-04-24T03:06:37;12.20;99.90
17381;DHT22;8808;52.478;13.378;2023-04-24T03:09:04;12.10;99.90
17381;DHT22;8808;52.478;13.378;2023-04-24T03:11:31;12.20;99.90
17381;DHT22;8808;52.478;13.378;2023-04-24T03:13:58;12.20;99.90
17381;DHT22;8808;52.478;13.378;2023-04-24T03:16:25;12.30;99.90
17381;DHT22;8808;52.478;13.378;2023-04-24T03:18:52;12.30;99.90
17381;DHT22;8808;52.478;13.378;2023-04-24T03:21:19;12.30;99.90
17381;DHT22;8808;52.478;13.378;2023-04-24T03:23:47;12.40;99.90
17381;DHT22;8808;52.478;13.378;2023-04-24T03:26:14;12.30;99.90
17381;DHT22;8808;52.478;13.378;2023-04-24T03:28:41;12.30;99.90
17381;DHT22;8808;52.478;13.378;2023-04-24T03:31:08;12.40;99.90
17381;DHT22;8808;52.478;13.378;2023-04-24T03:33:35;12.40;99.90
17381;DHT22;8808;52.478;13.378;2023-04-24T03:36:03;12.30;99.90
17381;DHT22;8808;52.478;13.378;2023-04-24T03:38:30;12.40;99.90
17381;DHT22;8808;52.478;13.378;2023-04-24T03:40:59;12.40;99.90
17381;DHT22;8808;52.478;13.378;2023-04-24T03:43:26;12.50;99.90
17381;DHT22;8808;52.478;13.378;2023-04-24T03:45:53;12.60;99.90
17381;DHT22;8808;52.478;13.378;2023-04-24T03:48:20;12.60;99.90
17381;DHT22;8808;52.478;13.378;2023-04-24T03:50:47;12.60;99.90
17381;DHT22;8808;52.478;13.378;2023-04-24T03:53:14;12.60;99.90
17381;DHT22;8808;52.478;13.378;2023-04-24T03:55:41;12.50;99.90
17381;DHT22;8808;52.478;13.378;2023-04-24T03:58:10;12.60;99.90
17381;DHT22;8808;52.478;13.378;2023-04-24T04:00:37;12.70;99.90
17381;DHT22;8808;52.478;13.378;2023-04-24T04:03:05;12.60;99.90
17381;DHT22;8808;52.478;13.378;2023-04-24T04:05:32;12.60;99.90
17381;DHT22;8808;52.478;13.378;2023-04-24T04:07:59;12.70;99.90
17381;DHT22;8808;52.478;13.378;2023-04-24T04:10:26;12.60;99.90
17381;DHT22;8808;52.478;13.378;2023-04-24T04:12:53;12.60;99.90
17381;DHT22;8808;52.478;13.378;2023-04-24T04:15:22;12.50;99.90
17381;DHT22;8808;52.478;13.378;2023-04-24T04:17:48;12.60;99.90
17381;DHT22;8808;52.478;13.378;2023-04-24T04:20:16;12.70;99.90
17381;DHT22;8808;52.478;13.378;2023-04-24T04:22:43;12.60;99.90
17381;DHT22;8808;52.478;13.378;2023-04-24T04:25:10;12.70;99.90
17381;DHT22;8808;52.478;13.378;2023-04-24T04:27:39;12.70;99.90
17381;DHT22;8808;52.478;13.378;2023-04-24T04:30:07;12.70;99.90
17381;DHT22;8808;52.478;13.378;2023-04-24T04:32:36;12.70;99.90
17381;DHT22;8808;52.478;13.378;2023-04-24T04:35:04;12.90;99.90
17381;DHT22;8808;52.478;13.378;2023-04-24T04:37:32;13.00;99.90
17381;DHT22;8808;52.478;13.378;2023-04-24T04:39:59;13.00;99.90
17381;DHT22;8808;52.478;13.378;2023-04-24T04:42:27;13.00;99.90
17381;DHT22;8808;52.478;13.378;2023-04-24T04:44:54;13.10;99.90
17381;DHT22;8808;52.478;13.378;2023-04-24T04:47:23;13.10;99.90
17381;DHT22;8808;52.478;13.378;2023-04-24T04:49:51;14.40;99.90
17381;DHT22;8808;52.478;13.378;2023-04-24T04:52:18;13.30;99.90
17381;DHT22;8808;52.478;13.378;2023-04-24T04:54:45;13.00;99.90
17381;DHT22;8808;52.478;13.378;2023-04-24T04:57:12;12.90;99.90
17381;DHT22;8808;52.478;13.378;2023-04-24T04:59:39;12.90;99.90
17381;DHT22;8808;52.478;13.378;2023-04-24T05:02:06;12.90;99.90
17381;DHT22;8808;52.478;13.378;2023-04-24T05:04:33;12.90;99.90
17381;DHT22;8808;52.478;13.378;2023-04-24T05:07:01;12.90;99.90
17381;DHT22;8808;52.478;13.378;2023-04-24T05:09:29;12.90;99.90
17381;DHT22;8808;52.478;13.378;2023-04-24T05:11:56;13.00;99.90
17381;DHT22;8808;52.478;13.378;2023-04-24T05:14:22;13.00;99.90
17381;DHT22;8808;52.478;13.378;2023-04-24T05:16:49;13.00;99.90
17381;DHT22;8808;52.478;13.378;2023-04-24T05:19:16;13.00;99.90
17381;DHT22;8808;52.478;13.378;2023-04-24T05:21:43;13.00;99.90
17381;DHT22;8808;52.478;13.378;2023-04-24T05:24:12;13.10;99.90
17381;DHT22;8808;52.478;13.378;2023-04-24T05:26:39;13.10;99.90
17381;DHT22;8808;52.478;13.378;2023-04-24T05:29:06;13.20;99.90
17381;DHT22;8808;52.478;13.378;2023-04-24T05:31:33;13.20;99.90
17381;DHT22;8808;52.478;13.378;2023-04-24T05:33:59;13.50;99.90
17381;DHT22;8808;52.478;13.378;2023-04-24T05:36:26;13.70;99.90
17381;DHT22;8808;52.478;13.378;2023-04-24T05:38:53;13.60;99.90
17381;DHT22;8808;52.478;13.378;2023-04-24T05:41:22;13.70;99.90
17381;DHT22;8808;52.478;13.378;2023-04-24T05:43:49;13.90;99.90
17381;DHT22;8808;52.478;13.378;2023-04-24T05:46:16;14.00;99.90
17381;DHT22;8808;52.478;13.378;2023-04-24T05:48:43;14.00;99.90
17381;DHT22;8808;52.478;13.378;2023-04-24T05:51:11;14.00;99.90
17381;DHT22;8808;52.478;13.378;2023-04-24T05:53:38;14.00;99.90
17381;DHT22;8808;52.478;13.378;2023-04-24T05:56:05;14.00;99.90
17381;DHT22;8808;52.478;13.378;2023-04-24T05:58:33;14.10;99.90
17381;DHT22;8808;52.478;13.378;2023-04-24T06:01:00;14.40;99.90
17381;DHT22;8808;52.478;13.378;2023-04-24T06:03:28;14.70;99.90
17381;DHT22;8808;52.478;13.378;2023-04-24T06:05:54;14.90;99.90
17381;DHT22;8808;52.478;13.378;2023-04-24T06:08:21;14.90;99.90
17381;DHT22;8808;52.478;13.378;2023-04-24T06:10:48;15.00;99.90
17381;DHT22;8808;52.478;13.378;2023-04-24T06:13:16;15.30;99.90
17381;DHT22;8808;52.478;13.378;2023-04-24T06:15:44;15.70;99.90
17381;DHT22;8808;52.478;13.378;2023-04-24T06:18:11;15.90;99.90
17381;DHT22;8808;52.478;13.378;2023-04-24T06:20:38;15.80;99.90
17381;DHT22;8808;52.478;13.378;2023-04-24T06:23:05;15.50;99.90
17381;DHT22;8808;52.478;13.378;2023-04-24T06:25:32;15.20;99.90
17381;DHT22;8808;52.478;13.378;2023-04-24T06:27:59;15.10;99.90
17381;DHT22;8808;52.478;13.378;2023-04-24T06:30:27;15.20;99.90
17381;DHT22;8808;52.478;13.378;2023-04-24T06:32:55;15.40;99.90
17381;DHT22;8808;52.478;13.378;2023-04-24T06:35:22;15.70;99.90
17381;DHT22;8808;52.478;13.378;2023-04-24T06:37:51;16.30;99.90
17381;DHT22;8808;52.478;13.378;2023-04-24T06:40:18;16.80;99.90
17381;DHT22;8808;52.478;13.378;2023-04-24T06:42:45;17.30;99.90
17381;DHT22;8808;52.478;13.378;2023-04-24T06:45:12;17.40;99.90
17381;DHT22;8808;52.478;13.378;2023-04-24T06:47:39;17.60;99.90
17381;DHT22;8808;52.478;13.378;2023-04-24T06:50:08;17.60;99.90
17381;DHT22;8808;52.478;13.378;2023-04-24T06:52:35;17.80;99.90
17381;DHT22;8808;52.478;13.378;2023-04-24T06:55:02;17.70;99.90
17381;DHT22;8808;52.478;13.378;2023-04-24T06:57:30;17.70;99.90
17381;DHT22;8808;52.478;13.378;2023-04-24T06:59:57;17.70;99.90
17381;DHT22;8808;52.478;13.378;2023-04-24T07:02:24;17.80;99.90
17381;DHT22;8808;52.478;13.378;2023-04-24T07:04:51;17.70;99.90
17381;DHT22;8808;52.478;13.378;2023-04-24T07:07:19;17.70;99.90
17381;DHT22;8808;52.478;13.378;2023-04-24T07:09:47;17.00;99.90
17381;DHT22;8808;52.478;13.378;2023-04-24T07:12:14;16.90;99.90
17381;DHT22;8808;52.478;13.378;2023-04-24T07:14:42;17.30;99.90
17381;DHT22;8808;52.478;13.378;2023-04-24T07:17:09;17.50;99.90
17381;DHT22;8808;52.478;13.378;2023-04-24T07:19:38;17.10;99.90
17381;DHT22;8808;52.478;13.378;2023-04-24T07:22:05;17.00;99.90
17381;DHT22;8808;52.478;13.378;2023-04-24T07:24:33;16.90;99.90
17381;DHT22;8808;52.478;13.378;2023-04-24T07:27:00;16.70;99.90
17381;DHT22;8808;52.478;13.378;2023-04-24T07:29:27;16.70;99.90
17381;DHT22;8808;52.478;13.378;2023-04-24T07:31:54;16.70;99.90
17381;DHT22;8808;52.478;13.378;2023-04-24T07:34:22;16.70;99.90
17381;DHT22;8808;52.478;13.378;2023-04-24T07:36:48;16.80;99.90
17381;DHT22;8808;52.478;13.378;2023-04-24T07:39:16;17.00;99.90
17381;DHT22;8808;52.478;13.378;2023-04-24T07:41:44;17.60;99.90
17381;DHT22;8808;52.478;13.378;2023-04-24T07:44:11;18.10;99.90
17381;DHT22;8808;52.478;13.378;2023-04-24T07:46:38;18.00;99.90
17381;DHT22;8808;52.478;13.378;2023-04-24T07:49:05;18.10;99.90
17381;DHT22;8808;52.478;13.378;2023-04-24T07:51:32;18.30;99.90
17381;DHT22;8808;52.478;13.378;2023-04-24T07:54:03;18.30;99.90
17381;DHT22;8808;52.478;13.378;2023-04-24T07:56:31;17.90;99.90
17381;DHT22;8808;52.478;13.378;2023-04-24T07:59:00;18.30;99.90
17381;DHT22;8808;52.478;13.378;2023-04-24T08:01:27;18.20;99.90
17381;DHT22;8808;52.478;13.378;2023-04-24T08:03:54;18.60;99.90
17381;DHT22;8808;52.478;13.378;2023-04-24T08:06:21;18.60;98.80
17381;DHT22;8808;52.478;13.378;2023-04-24T08:08:48;18.60;99.90
17381;DHT22;8808;52.478;13.378;2023-04-24T08:11:17;18.30;99.90
17381;DHT22;8808;52.478;13.378;2023-04-24T08:13:43;18.10;99.90
17381;DHT22;8808;52.478;13.378;2023-04-24T08:16:12;18.10;99.90
17381;DHT22;8808;52.478;13.378;2023-04-24T08:18:39;18.10;99.90
17381;DHT22;8808;52.478;13.378;2023-04-24T08:21:06;17.60;99.90
17381;DHT22;8808;52.478;13.378;2023-04-24T08:23:33;17.20;99.90
17381;DHT22;8808;52.478;13.378;2023-04-24T08:26:00;17.60;99.90
17381;DHT22;8808;52.478;13.378;2023-04-24T08:28:27;17.30;99.90
17381;DHT22;8808;52.478;13.378;2023-04-24T08:30:54;17.40;99.90
17381;DHT22;8808;52.478;13.378;2023-04-24T08:33:22;17.70;99.90
17381;DHT22;8808;52.478;13.378;2023-04-24T08:35:50;18.20;99.90
17381;DHT22;8808;52.478;13.378;2023-04-24T08:38:17;18.10;99.90
17381;DHT22;8808;52.478;13.378;2023-04-24T08:40:44;17.80;99.90
17381;DHT22;8808;52.478;13.378;2023-04-24T08:43:12;17.80;99.90
17381;DHT22;8808;52.478;13.378;2023-04-24T08:45:40;17.80;99.90
17381;DHT22;8808;52.478;13.378;2023-04-24T08:48:07;17.90;99.90
17381;DHT22;8808;52.478;13.378;2023-04-24T08:50:37;18.00;99.90
17381;DHT22;8808;52.478;13.378;2023-04-24T08:53:04;18.40;99.90
17381;DHT22;8808;52.478;13.378;2023-04-24T08:55:32;18.40;99.90
17381;DHT22;8808;52.478;13.378;2023-04-24T08:58:01;18.20;99.90
17381;DHT22;8808;52.478;13.378;2023-04-24T09:00:29;18.90;99.90
17381;DHT22;8808;52.478;13.378;2023-04-24T09:02:56;18.30;99.90
17381;DHT22;8808;52.478;13.378;2023-04-24T09:05:24;17.80;99.90
17381;DHT22;8808;52.478;13.378;2023-04-24T09:07:55;17.80;99.90
17381;DHT22;8808;52.478;13.378;2023-04-24T09:10:24;17.80;99.90
17381;DHT22;8808;52.478;13.378;2023-04-24T09:12:52;17.70;99.90
17381;DHT22;8808;52.478;13.378;2023-04-24T09:15:19;17.50;99.90
17381;DHT22;8808;52.478;13.378;2023-04-24T09:17:47;17.70;99.90
17381;DHT22;8808;52.478;13.378;2023-04-24T09:20:14;17.30;99.90
17381;DHT22;8808;52.478;13.378;2023-04-24T09:22:42;17.20;99.90
17381;DHT22;8808;52.478;13.378;2023-04-24T09:25:11;17.20;99.90
17381;DHT22;8808;52.478;13.378;2023-04-24T09:27:42;17.20;99.90
17381;DHT22;8808;52.478;13.378;2023-04-24T09:30:10;17.20;99.90
17381;DHT22;8808;52.478;13.378;2023-04-24T09:32:37;17.40;99.90
17381;DHT22;8808;52.478;13.378;2023-04-24T09:35:09;17.30;99.90
17381;DHT22;8808;52.478;13.378;2023-04-24T09:37:37;17.20;99.90
17381;DHT22;8808;52.478;13.378;2023-04-24T09:40:14;17.00;99.90
17381;DHT22;8808;52.478;13.378;2023-04-24T09:42:44;17.10;99.90
17381;DHT22;8808;52.478;13.378;2023-04-24T09:45:12;17.30;99.90
17381;DHT22;8808;52.478;13.378;2023-04-24T09:47:39;17.40;99.90
17381;DHT22;8808;52.478;13.378;2023-04-24T09:50:14;17.40;99.90
17381;DHT22;8808;52.478;13.378;2023-04-24T09:52:45;17.50;99.90
17381;DHT22;8808;52.478;13.378;2023-04-24T09:55:20;17.30;99.90
17381;DHT22;8808;52.478;13.378;2023-04-24T09:57:49;17.40;99.90
17381;DHT22;8808;52.478;13.378;2023-04-24T10:00:22;17.30;99.90
17381;DHT22;8808;52.478;13.378;2023-04-24T10:02:51;17.30;99.90
17381;DHT22;8808;52.478;13.378;2023-04-24T10:05:18;17.40;99.90
17381;DHT22;8808;52.478;13.378;2023-04-24T10:07:46;17.50;99.90
17381;DHT22;8808;52.478;13.378;2023-04-24T10:10:13;17.80;99.90
17381;DHT22;8808;52.478;13.378;2023-04-24T10:12:42;18.50;99.90
17381;DHT22;8808;52.478;13.378;2023-04-24T10:15:10;19.10;99.90
17381;DHT22;8808;52.478;13.378;2023-04-24T10:17:39;18.90;99.90
17381;DHT22;8808;52.478;13.378;2023-04-24T10:20:07;18.30;99.90
17381;DHT22;8808;52.478;13.378;2023-04-24T10:22:36;18.10;99.90
17381;DHT22;8808;52.478;13.378;2023-04-24T10:25:04;18.20;99.90
17381;DHT22;8808;52.478;13.378;2023-04-24T10:27:32;17.80;99.90
17381;DHT22;8808;52.478;13.378;2023-04-24T10:30:03;17.60;99.90
17381;DHT22;8808;52.478;13.378;2023-04-24T10:32:31;17.80;99.90
17381;DHT22;8808;52.478;13.378;2023-04-24T10:34:58;17.90;99.90
17381;DHT22;8808;52.478;13.378;2023-04-24T10:37:26;17.70;99.90
17381;DHT22;8808;52.478;13.378;2023-04-24T10:39:53;17.60;99.90
17381;DHT22;8808;52.478;13.378;2023-04-24T10:42:20;17.30;99.90
17381;DHT22;8808;52.478;13.378;2023-04-24T10:44:48;17.30;99.90
17381;DHT22;8808;52.478;13.378;2023-04-24T10:47:17;17.10;99.90
17381;DHT22;8808;52.478;13.378;2023-04-24T10:49:45;16.90;99.90
17381;DHT22;8808;52.478;13.378;2023-04-24T10:52:12;16.90;99.90
17381;DHT22;8808;52.478;13.378;2023-04-24T10:54:44;16.70;99.90
17381;DHT22;8808;52.478;13.378;2023-04-24T10:57:28;16.60;99.90
17381;DHT22;8808;52.478;13.378;2023-04-24T11:00:16;16.70;99.90
17381;DHT22;8808;52.478;13.378;2023-04-24T11:02:46;16.70;99.90
17381;DHT22;8808;52.478;13.378;2023-04-24T11:05:19;16.90;99.90
17381;DHT22;8808;52.478;13.378;2023-04-24T11:08:10;17.40;99.90
17381;DHT22;8808;52.478;13.378;2023-04-24T11:10:39;18.20;99.90
17381;DHT22;8808;52.478;13.378;2023-04-24T11:13:06;18.40;99.90
17381;DHT22;8808;52.478;13.378;2023-04-24T11:15:34;18.10;99.90
17381;DHT22;8808;52.478;13.378;2023-04-24T11:18:02;18.30;99.90
17381;DHT22;8808;52.478;13.378;2023-04-24T11:20:29;18.20;99.90
17381;DHT22;8808;52.478;13.378;2023-04-24T11:23:03;18.00;99.90
17381;DHT22;8808;52.478;13.378;2023-04-24T11:25:31;17.60;99.90
17381;DHT22;8808;52.478;13.378;2023-04-24T11:28:04;17.50;99.90
17381;DHT22;8808;52.478;13.378;2023-04-24T11:30:32;17.40;99.90
17381;DHT22;8808;52.478;13.378;2023-04-24T11:33:04;17.40;99.90
17381;DHT22;8808;52.478;13.378;2023-04-24T11:35:35;17.20;99.90
17381;DHT22;8808;52.478;13.378;2023-04-24T11:38:03;16.70;99.90
17381;DHT22;8808;52.478;13.378;2023-04-24T11:40:30;16.90;99.90
17381;DHT22;8808;52.478;13.378;2023-04-24T11:43:00;17.10;99.90
17381;DHT22;8808;52.478;13.378;2023-04-24T11:45:28;17.30;99.90
17381;DHT22;8808;52.478;13.378;2023-04-24T11:47:55;17.20;99.90
17381;DHT22;8808;52.478;13.378;2023-04-24T11:50:24;17.10;99.90
17381;DHT22;8808;52.478;13.378;2023-04-24T11:52:53;17.20;99.90
17381;DHT22;8808;52.478;13.378;2023-04-24T11:55:25;17.20;99.90
17381;DHT22;8808;52.478;13.378;2023-04-24T11:57:54;17.40;99.90
17381;DHT22;8808;52.478;13.378;2023-04-24T12:00:24;17.10;99.90
17381;DHT22;8808;52.478;13.378;2023-04-24T12:02:53;17.10;99.90
17381;DHT22;8808;52.478;13.378;2023-04-24T12:05:30;17.60;99.90
17381;DHT22;8808;52.478;13.378;2023-04-24T12:07:57;17.90;99.90
17381;DHT22;8808;52.478;13.378;2023-04-24T12:10:26;18.10;99.90
17381;DHT22;8808;52.478;13.378;2023-04-24T12:12:54;18.10;99.90
17381;DHT22;8808;52.478;13.378;2023-04-24T12:15:22;18.10;99.90
17381;DHT22;8808;52.478;13.378;2023-04-24T12:17:51;18.30;99.90
17381;DHT22;8808;52.478;13.378;2023-04-24T12:20:24;18.40;99.90
17381;DHT22;8808;52.478;13.378;2023-04-24T12:22:54;18.50;99.90
17381;DHT22;8808;52.478;13.378;2023-04-24T12:25:23;18.30;99.90
17381;DHT22;8808;52.478;13.378;2023-04-24T12:27:53;18.30;99.90
17381;DHT22;8808;52.478;13.378;2023-04-24T12:30:21;18.50;98.00
17381;DHT22;8808;52.478;13.378;2023-04-24T12:32:52;18.70;95.50
17381;DHT22;8808;52.478;13.378;2023-04-24T12:35:22;18.60;93.90
17381;DHT22;8808;52.478;13.378;2023-04-24T12:37:49;18.30;93.30
17381;DHT22;8808;52.478;13.378;2023-04-24T12:40:19;18.50;93.40
17381;DHT22;8808;52.478;13.378;2023-04-24T12:42:47;18.50;92.00
17381;DHT22;8808;52.478;13.378;2023-04-24T12:45:15;18.70;92.30
17381;DHT22;8808;52.478;13.378;2023-04-24T12:47:44;18.70;90.70
17381;DHT22;8808;52.478;13.378;2023-04-24T12:50:12;18.70;90.70
17381;DHT22;8808;52.478;13.378;2023-04-24T12:52:40;18.50;90.00
17381;DHT22;8808;52.478;13.378;2023-04-24T12:55:08;18.40;87.50
17381;DHT22;8808;52.478;13.378;2023-04-24T12:57:38;18.20;87.70
17381;DHT22;8808;52.478;13.378;2023-04-24T13:00:07;18.30;86.90
17381;DHT22;8808;52.478;13.378;2023-04-24T13:02:35;18.50;87.20
17381;DHT22;8808;52.478;13.378;2023-04-24T13:05:02;18.40;85.50
17381;DHT22;8808;52.478;13.378;2023-04-24T13:07:29;18.50;87.00
17381;DHT22;8808;52.478;13.378;2023-04-24T13:09:56;18.70;88.30
17381;DHT22;8808;52.478;13.378;2023-04-24T13:12:24;18.80;83.90
17381;DHT22;8808;52.478;13.378;2023-04-24T13:14:53;18.90;80.80
17381;DHT22;8808;52.478;13.378;2023-04-24T13:17:20;18.90;80.80
17381;DHT22;8808;52.478;13.378;2023-04-24T13:19:50;19.30;81.70
17381;DHT22;8808;52.478;13.378;2023-04-24T13:22:18;19.20;80.10
17381;DHT22;8808;52.478;13.378;2023-04-24T13:24:45;19.40;81.30
17381;DHT22;8808;52.478;13.378;2023-04-24T13:27:14;19.40;80.80
17381;DHT22;8808;52.478;13.378;2023-04-24T13:29:41;19.30;82.90
17381;DHT22;8808;52.478;13.378;2023-04-24T13:32:10;18.80;79.70
17381;DHT22;8808;52.478;13.378;2023-04-24T13:34:37;18.60;77.90
17381;DHT22;8808;52.478;13.378;2023-04-24T13:37:04;18.60;77.30
17381;DHT22;8808;52.478;13.378;2023-04-24T13:39:31;18.60;76.00
17381;DHT22;8808;52.478;13.378;2023-04-24T13:41:58;18.90;76.70
17381;DHT22;8808;52.478;13.378;2023-04-24T13:44:26;18.90;78.20
17381;DHT22;8808;52.478;13.378;2023-04-24T13:46:54;18.70;77.50
17381;DHT22;8808;52.478;13.378;2023-04-24T13:49:24;18.30;77.70
17381;DHT22;8808;52.478;13.378;2023-04-24T13:51:52;18.20;78.10
17381;DHT22;8808;52.478;13.378;2023-04-24T13:54:19;18.50;76.10
17381;DHT22;8808;52.478;13.378;2023-04-24T13:56:47;18.30;74.20
17381;DHT22;8808;52.478;13.378;2023-04-24T13:59:14;18.20;76.80
17381;DHT22;8808;52.478;13.378;2023-04-24T14:01:41;18.20;77.00
17381;DHT22;8808;52.478;13.378;2023-04-24T14:04:10;18.40;78.60
17381;DHT22;8808;52.478;13.378;2023-04-24T14:06:38;18.20;77.50
17381;DHT22;8808;52.478;13.378;2023-04-24T14:09:06;18.00;78.00
17381;DHT22;8808;52.478;13.378;2023-04-24T14:11:33;18.20;77.00
17381;DHT22;8808;52.478;13.378;2023-04-24T14:14:00;18.10;77.00
17381;DHT22;8808;52.478;13.378;2023-04-24T14:16:28;18.30;77.70
17381;DHT22;8808;52.478;13.378;2023-04-24T14:18:56;18.10;80.00
17381;DHT22;8808;52.478;13.378;2023-04-24T14:21:22;18.10;78.10
17381;DHT22;8808;52.478;13.378;2023-04-24T14:23:51;17.90;76.40
17381;DHT22;8808;52.478;13.378;2023-04-24T14:26:18;17.90;76.90
17381;DHT22;8808;52.478;13.378;2023-04-24T14:28:46;17.90;76.80
17381;DHT22;8808;52.478;13.378;2023-04-24T14:31:13;18.10;79.40
17381;DHT22;8808;52.478;13.378;2023-04-24T14:33:39;18.30;77.00
17381;DHT22;8808;52.478;13.378;2023-04-24T14:36:07;18.20;75.70
17381;DHT22;8808;52.478;13.378;2023-04-24T14:38:34;18.00;76.50
17381;DHT22;8808;52.478;13.378;2023-04-24T14:41:02;17.90;76.10
17381;DHT22;8808;52.478;13.378;2023-04-24T14:43:34;17.70;76.80
17381;DHT22;8808;52.478;13.378;2023-04-24T14:46:01;17.80;78.30
17381;DHT22;8808;52.478;13.378;2023-04-24T14:48:28;19.20;89.70
17381;DHT22;8808;52.478;13.378;2023-04-24T14:50:55;19.70;82.90
17381;DHT22;8808;52.478;13.378;2023-04-24T14:53:22;19.00;76.60
17381;DHT22;8808;52.478;13.378;2023-04-24T14:55:49;18.50;75.80
17381;DHT22;8808;52.478;13.378;2023-04-24T14:58:18;18.30;82.40
17381;DHT22;8808;52.478;13.378;2023-04-24T15:00:45;18.00;77.90
17381;DHT22;8808;52.478;13.378;2023-04-24T15:03:12;17.70;77.60
17381;DHT22;8808;52.478;13.378;2023-04-24T15:05:39;17.70;78.40
17381;DHT22;8808;52.478;13.378;2023-04-24T15:08:06;17.50;78.80
17381;DHT22;8808;52.478;13.378;2023-04-24T15:10:33;17.40;79.10
17381;DHT22;8808;52.478;13.378;2023-04-24T15:13:00;17.40;79.10
17381;DHT22;8808;52.478;13.378;2023-04-24T15:15:28;17.60;80.30
17381;DHT22;8808;52.478;13.378;2023-04-24T15:17:55;17.70;79.00
17381;DHT22;8808;52.478;13.378;2023-04-24T15:20:22;17.50;79.30
17381;DHT22;8808;52.478;13.378;2023-04-24T15:22:49;17.60;79.80
17381;DHT22;8808;52.478;13.378;2023-04-24T15:25:16;18.00;83.00
17381;DHT22;8808;52.478;13.378;2023-04-24T15:27:44;17.60;77.30
17381;DHT22;8808;52.478;13.378;2023-04-24T15:30:12;17.30;77.10
17381;DHT22;8808;52.478;13.378;2023-04-24T15:32:41;17.10;77.90
17381;DHT22;8808;52.478;13.378;2023-04-24T15:35:08;17.00;79.40
17381;DHT22;8808;52.478;13.378;2023-04-24T15:37:35;17.00;79.90